Time;durP1;ratioP1;P1;durP2;ratioP2;P2;SDS_P1;SDS_P2;PMS_P1;PMS_P2;Temp;Humidity;BMP_temperature;BMP_pressure;BME280_temperature;BME280_humidity;BME280_pressure;Samples;Min_cycle;Max_cycle;Signal;HPM_P1;HPM_P2
2022/11/23 00:00:57;;;;;;;;;;;10.90;74.50;;;;;;5064519;28;19923;-78
2022/11/23 00:03:22;;;;;;;;;;;10.90;74.60;;;;;;5076579;28;20011;-79
2022/11/23 00:05:48;;;;;;;;;;;10.90;74.20;;;;;;5066340;28;20360;-79
2022/11/23 00:08:13;;;;;;;;;;;10.90;74.50;;;;;;5057946;28;19923;-78
2022/11/23 00:10:39;;;;;;;;;;;11.00;74.80;;;;;;5052549;28;20374;-81
2022/11/23 00:13:05;;;;;;;;;;;11.00;74.60;;;;;;5075061;28;19916;-79
2022/11/23 00:15:31;;;;;;;;;;;11.00;74.60;;;;;;5063220;28;19996;-78
2022/11/23 00:17:58;;;;;;;;;;;11.00;74.60;;;;;;5060449;28;19917;-77
2022/11/23 00:20:24;;;;;;;;;;;11.00;74.60;;;;;;5074806;28;19924;-79
2022/11/23 00:22:50;;;;;;;;;;;11.00;74.60;;;;;;5089001;28;19916;-78
2022/11/23 00:25:15;;;;;;;;;;;10.90;74.60;;;;;;5067265;28;20417;-79
2022/11/23 00:27:41;;;;;;;;;;;11.00;74.60;;;;;;5060961;28;19924;-78
2022/11/23 00:30:08;;;;;;;;;;;11.00;74.60;;;;;;5076322;28;19928;-79
2022/11/23 00:32:34;;;;;;;;;;;11.00;74.60;;;;;;5087261;28;20342;-81
2022/11/23 00:34:59;;;;;;;;;;;11.00;74.60;;;;;;5082266;28;19923;-78
2022/11/23 00:37:25;;;;;;;;;;;11.00;74.60;;;;;;5049987;28;19916;-78
2022/11/23 00:39:53;;;;;;;;;;;11.00;74.60;;;;;;5094329;28;20002;-78
2022/11/23 00:42:19;;;;;;;;;;;11.00;74.60;;;;;;5082249;28;20035;-77
2022/11/23 00:44:44;;;;;;;;;;;11.00;74.60;;;;;;5070925;28;19912;-78
2022/11/23 00:47:10;;;;;;;;;;;11.00;74.60;;;;;;5065440;28;20375;-79
2022/11/23 00:49:35;;;;;;;;;;;11.00;74.50;;;;;;5090053;28;19977;-77
2022/11/23 00:52:01;;;;;;;;;;;11.00;74.50;;;;;;5071135;28;19917;-77
2022/11/23 00:54:27;;;;;;;;;;;11.00;74.60;;;;;;5060033;28;19916;-77
2022/11/23 00:56:53;;;;;;;;;;;11.00;74.60;;;;;;5061729;28;20357;-78
2022/11/23 00:59:21;;;;;;;;;;;11.10;74.60;;;;;;5058084;28;20333;-78
2022/11/23 01:01:47;;;;;;;;;;;11.10;74.60;;;;;;5072531;28;19970;-81
2022/11/23 01:04:13;;;;;;;;;;;11.00;74.50;;;;;;5094449;28;19916;-78
2022/11/23 01:06:39;;;;;;;;;;;11.00;74.50;;;;;;5065401;28;19974;-78
2022/11/23 01:09:04;;;;;;;;;;;11.00;74.50;;;;;;5061977;28;20359;-78
2022/11/23 01:11:31;;;;;;;;;;;11.10;74.60;;;;;;5070898;28;19912;-82
2022/11/23 01:13:56;;;;;;;;;;;11.10;74.60;;;;;;5064409;28;19912;-79
2022/11/23 01:16:23;;;;;;;;;;;11.10;74.60;;;;;;5098016;28;19934;-78
2022/11/23 01:18:55;;;;;;;;;;;11.10;74.60;;;;;;5087184;28;19912;-79
2022/11/23 01:21:22;;;;;;;;;;;11.10;74.60;;;;;;5077527;28;19916;-79
2022/11/23 01:23:48;;;;;;;;;;;11.10;74.50;;;;;;5057984;28;19922;-79
2022/11/23 01:26:14;;;;;;;;;;;11.10;74.50;;;;;;5089607;28;20015;-79
2022/11/23 01:28:40;;;;;;;;;;;11.10;74.50;;;;;;5079571;28;19973;-79
2022/11/23 01:31:08;;;;;;;;;;;11.10;74.60;;;;;;5091923;28;19912;-79
2022/11/23 01:33:34;;;;;;;;;;;11.10;74.60;;;;;;5083025;28;19955;-79
2022/11/23 01:36:12;;;;;;;;;;;11.10;74.60;;;;;;5079053;28;19916;-79
2022/11/23 01:38:38;;;;;;;;;;;11.10;74.50;;;;;;5081652;28;20518;-79
2022/11/23 01:41:04;;;;;;;;;;;11.10;74.50;;;;;;5058989;28;19922;-79
2022/11/23 01:43:30;;;;;;;;;;;11.10;74.50;;;;;;5057719;28;19923;-81
2022/11/23 01:45:57;;;;;;;;;;;11.10;74.50;;;;;;5074774;28;19912;-80
2022/11/23 01:48:27;;;;;;;;;;;11.10;74.50;;;;;;5061437;28;19916;-79
2022/11/23 01:50:55;;;;;;;;;;;11.20;74.60;;;;;;5071571;28;20106;-78
2022/11/23 01:53:21;;;;;;;;;;;11.10;74.50;;;;;;5076238;28;19912;-80
2022/11/23 01:55:49;;;;;;;;;;;11.10;74.50;;;;;;5072356;28;19923;-78
2022/11/23 01:58:16;;;;;;;;;;;11.10;74.50;;;;;;5075496;28;19919;-79
2022/11/23 02:00:41;;;;;;;;;;;11.20;74.60;;;;;;5076159;28;19912;-79
2022/11/23 02:03:08;;;;;;;;;;;11.20;74.60;;;;;;5072910;28;19923;-78
2022/11/23 02:05:40;;;;;;;;;;;11.20;74.60;;;;;;5066161;28;19923;-81
2022/11/23 02:08:06;;;;;;;;;;;11.20;74.60;;;;;;5071206;28;19921;-78
2022/11/23 02:10:32;;;;;;;;;;;11.20;74.60;;;;;;5081644;28;19923;-78
2022/11/23 02:13:03;;;;;;;;;;;11.20;74.60;;;;;;5061365;28;20050;-80
2022/11/23 02:15:29;;;;;;;;;;;11.20;74.60;;;;;;5072590;28;20006;-80
2022/11/23 02:17:55;;;;;;;;;;;11.20;74.50;;;;;;5074356;28;20106;-78
2022/11/23 02:20:21;;;;;;;;;;;11.20;74.60;;;;;;5065422;28;19913;-80
2022/11/23 02:22:57;;;;;;;;;;;11.20;74.50;;;;;;5074367;28;19920;-79
2022/11/23 02:25:33;;;;;;;;;;;11.20;74.60;;;;;;5073250;28;19969;-79
2022/11/23 02:28:00;;;;;;;;;;;11.20;74.60;;;;;;5062875;28;19920;-78
2022/11/23 02:30:26;;;;;;;;;;;11.20;74.60;;;;;;5084302;28;19930;-78
2022/11/23 02:32:52;;;;;;;;;;;11.20;74.60;;;;;;5061181;28;19916;-78
2022/11/23 02:35:18;;;;;;;;;;;11.20;74.60;;;;;;5061520;28;20289;-79
2022/11/23 02:37:44;;;;;;;;;;;11.20;74.50;;;;;;5074510;28;19923;-79
2022/11/23 02:40:15;;;;;;;;;;;11.20;74.60;;;;;;5075458;28;19939;-78
2022/11/23 02:42:42;;;;;;;;;;;11.20;74.60;;;;;;5069593;28;20006;-78
2022/11/23 02:45:14;;;;;;;;;;;11.20;74.60;;;;;;5076780;28;19916;-79
2022/11/23 02:47:40;;;;;;;;;;;11.20;74.60;;;;;;5062492;28;19920;-79
2022/11/23 02:50:08;;;;;;;;;;;11.20;74.60;;;;;;5073368;28;19955;-79
2022/11/23 02:52:33;;;;;;;;;;;11.20;74.60;;;;;;5073399;28;20372;-78
2022/11/23 02:54:59;;;;;;;;;;;11.20;74.60;;;;;;5073229;28;20007;-79
2022/11/23 02:57:24;;;;;;;;;;;11.20;74.60;;;;;;5074558;28;20015;-78
2022/11/23 02:59:50;;;;;;;;;;;11.20;74.60;;;;;;5082956;28;19955;-78
2022/11/23 03:02:16;;;;;;;;;;;11.20;74.60;;;;;;5065168;28;19916;-78
2022/11/23 03:04:41;;;;;;;;;;;11.30;74.60;;;;;;5060724;28;19948;-78
2022/11/23 03:07:07;;;;;;;;;;;11.20;74.60;;;;;;5062964;28;19981;-77
2022/11/23 03:09:33;;;;;;;;;;;11.20;74.60;;;;;;5077921;28;19920;-78
2022/11/23 03:11:58;;;;;;;;;;;11.30;74.60;;;;;;5065375;28;19920;-79
2022/11/23 03:14:26;;;;;;;;;;;11.20;74.60;;;;;;5069812;28;19917;-78
2022/11/23 03:16:57;;;;;;;;;;;11.20;74.60;;;;;;5044283;28;19917;-78
2022/11/23 03:19:23;;;;;;;;;;;11.30;74.70;;;;;;5074853;28;19912;-78
2022/11/23 03:21:50;;;;;;;;;;;11.30;74.60;;;;;;5071534;28;19912;-78
2022/11/23 03:24:16;;;;;;;;;;;11.30;74.60;;;;;;5085204;28;19965;-79
2022/11/23 03:26:43;;;;;;;;;;;11.30;74.60;;;;;;5056302;28;19943;-78
2022/11/23 03:29:12;;;;;;;;;;;11.30;74.60;;;;;;5069351;28;19920;-80
2022/11/23 03:31:39;;;;;;;;;;;11.30;74.60;;;;;;5085288;28;19920;-82
2022/11/23 03:34:09;;;;;;;;;;;11.30;74.60;;;;;;5079695;28;19921;-78
2022/11/23 03:36:35;;;;;;;;;;;11.30;74.60;;;;;;5064982;28;19916;-80
2022/11/23 03:39:00;;;;;;;;;;;11.30;74.60;;;;;;5044327;28;19927;-80
2022/11/23 03:41:44;;;;;;;;;;;11.30;74.60;;;;;;5080903;28;20000;-79
2022/11/23 03:44:10;;;;;;;;;;;11.30;74.70;;;;;;5066666;28;19983;-78
2022/11/23 03:46:36;;;;;;;;;;;11.30;74.60;;;;;;5048285;28;19945;-81
2022/11/23 03:49:02;;;;;;;;;;;11.30;74.60;;;;;;5057996;28;19916;-81
2022/11/23 03:51:28;;;;;;;;;;;11.30;74.70;;;;;;5063446;28;19923;-78
2022/11/23 03:53:54;;;;;;;;;;;11.30;74.70;;;;;;5044940;28;19920;-79
2022/11/23 03:56:19;;;;;;;;;;;11.30;74.60;;;;;;5061546;28;19920;-80
2022/11/23 03:58:45;;;;;;;;;;;11.30;74.60;;;;;;5087094;28;20003;-78
2022/11/23 04:01:13;;;;;;;;;;;11.30;74.60;;;;;;5079046;28;20375;-78
2022/11/23 04:03:39;;;;;;;;;;;11.30;74.60;;;;;;5063293;28;19916;-78
2022/11/23 04:06:08;;;;;;;;;;;11.30;74.70;;;;;;5077323;28;19975;-78
2022/11/23 04:08:33;;;;;;;;;;;11.30;74.60;;;;;;5081037;28;19970;-78
2022/11/23 04:11:04;;;;;;;;;;;11.30;74.60;;;;;;5060326;28;19948;-79
2022/11/23 04:13:36;;;;;;;;;;;11.30;74.60;;;;;;5071358;28;19916;-79
2022/11/23 04:16:02;;;;;;;;;;;11.30;74.70;;;;;;5061650;28;20764;-80
2022/11/23 04:18:27;;;;;;;;;;;11.30;74.60;;;;;;5080885;28;20023;-79
2022/11/23 04:20:53;;;;;;;;;;;11.30;74.70;;;;;;5076448;28;20821;-79
2022/11/23 04:23:19;;;;;;;;;;;11.30;74.60;;;;;;5072065;28;19920;-79
2022/11/23 04:25:47;;;;;;;;;;;11.30;74.60;;;;;;5077615;28;20071;-79
2022/11/23 04:28:13;;;;;;;;;;;11.30;74.70;;;;;;5070110;28;20355;-79
2022/11/23 04:30:38;;;;;;;;;;;11.30;74.60;;;;;;5058800;28;19924;-80
2022/11/23 04:33:05;;;;;;;;;;;11.30;74.70;;;;;;5081691;28;20314;-79
2022/11/23 04:35:33;;;;;;;;;;;11.30;74.60;;;;;;5069118;28;20377;-81
2022/11/23 04:37:58;;;;;;;;;;;11.30;74.60;;;;;;5080016;28;20315;-79
2022/11/23 04:40:26;;;;;;;;;;;11.30;74.60;;;;;;5086263;28;19919;-79
2022/11/23 04:42:55;;;;;;;;;;;11.30;74.60;;;;;;5060345;28;19912;-79
2022/11/23 04:45:21;;;;;;;;;;;11.30;74.60;;;;;;5053989;28;20008;-79
2022/11/23 04:47:47;;;;;;;;;;;11.30;74.60;;;;;;5060021;28;20006;-79
2022/11/23 04:50:14;;;;;;;;;;;11.30;74.60;;;;;;5058390;28;19923;-78
2022/11/23 04:52:44;;;;;;;;;;;11.30;74.60;;;;;;5083795;28;20292;-79
2022/11/23 04:55:15;;;;;;;;;;;11.30;74.60;;;;;;5062540;28;19916;-79
2022/11/23 04:57:49;;;;;;;;;;;11.30;74.60;;;;;;5076765;28;19916;-79
2022/11/23 05:00:15;;;;;;;;;;;11.30;74.60;;;;;;5068073;28;19916;-79
2022/11/23 05:02:41;;;;;;;;;;;11.30;74.70;;;;;;5046914;28;20276;-79
2022/11/23 05:05:13;;;;;;;;;;;11.30;74.60;;;;;;5077891;28;19912;-79
2022/11/23 05:07:39;;;;;;;;;;;11.30;74.60;;;;;;5052090;28;19980;-79
2022/11/23 05:10:05;;;;;;;;;;;11.30;74.60;;;;;;5080456;28;19954;-79
2022/11/23 05:12:33;;;;;;;;;;;11.30;75.30;;;;;;5058094;28;19923;-79
2022/11/23 05:15:00;;;;;;;;;;;11.30;74.70;;;;;;5062584;28;19916;-81
2022/11/23 05:17:33;;;;;;;;;;;11.30;74.70;;;;;;5060175;28;19999;-79
2022/11/23 05:19:58;;;;;;;;;;;11.30;74.70;;;;;;5067316;28;19923;-79
2022/11/23 05:22:26;;;;;;;;;;;11.30;74.70;;;;;;5074793;28;19920;-80
2022/11/23 05:24:52;;;;;;;;;;;11.30;74.60;;;;;;5079173;28;19923;-80
2022/11/23 05:27:21;;;;;;;;;;;11.30;74.70;;;;;;5037147;28;19937;-78
2022/11/23 05:29:47;;;;;;;;;;;11.30;74.70;;;;;;5043184;28;19932;-80
2022/11/23 05:32:13;;;;;;;;;;;11.30;74.70;;;;;;5060524;28;19920;-79
2022/11/23 05:34:38;;;;;;;;;;;11.30;74.70;;;;;;5065440;28;19942;-78
2022/11/23 05:37:06;;;;;;;;;;;11.30;74.70;;;;;;5075886;28;19916;-79
2022/11/23 05:39:32;;;;;;;;;;;11.30;74.70;;;;;;5074752;28;19950;-80
2022/11/23 05:41:59;;;;;;;;;;;11.30;74.70;;;;;;5080546;28;19916;-78
2022/11/23 05:44:37;;;;;;;;;;;11.30;74.70;;;;;;5063528;28;19916;-78
2022/11/23 05:47:05;;;;;;;;;;;11.40;74.80;;;;;;5046231;28;19928;-78
2022/11/23 05:49:32;;;;;;;;;;;11.30;74.70;;;;;;5056152;28;19917;-79
2022/11/23 05:52:00;;;;;;;;;;;11.30;74.70;;;;;;5067849;28;19974;-80
2022/11/23 05:54:27;;;;;;;;;;;11.30;74.70;;;;;;5057631;28;19924;-78
2022/11/23 05:57:00;;;;;;;;;;;11.30;74.70;;;;;;5059208;28;19938;-78
2022/11/23 05:59:39;;;;;;;;;;;11.30;74.70;;;;;;5073051;28;19927;-79
2022/11/23 06:02:07;;;;;;;;;;;11.30;74.70;;;;;;5076819;28;19931;-78
2022/11/23 06:04:34;;;;;;;;;;;11.30;74.70;;;;;;5055915;28;20353;-78
2022/11/23 06:07:00;;;;;;;;;;;11.30;74.70;;;;;;5066112;28;19924;-79
2022/11/23 06:09:29;;;;;;;;;;;11.30;74.70;;;;;;5064195;28;19917;-78
2022/11/23 06:12:02;;;;;;;;;;;11.30;74.70;;;;;;5076421;28;20275;-77
2022/11/23 06:14:28;;;;;;;;;;;11.30;74.70;;;;;;5059403;28;19939;-78
2022/11/23 06:16:55;;;;;;;;;;;11.30;75.30;;;;;;5076078;28;19916;-81
2022/11/23 06:19:50;;;;;;;;;;;11.30;74.70;;;;;;5081357;28;20420;-78
2022/11/23 06:22:16;;;;;;;;;;;11.30;74.70;;;;;;5068712;28;20032;-79
2022/11/23 06:24:50;;;;;;;;;;;11.30;74.70;;;;;;5085981;28;19916;-78
2022/11/23 06:27:34;;;;;;;;;;;11.30;74.70;;;;;;5073937;28;20019;-79
2022/11/23 06:30:03;;;;;;;;;;;11.30;74.70;;;;;;5065757;28;20018;-79
2022/11/23 06:32:30;;;;;;;;;;;11.30;74.80;;;;;;5067929;28;19959;-78
2022/11/23 06:34:56;;;;;;;;;;;11.30;74.70;;;;;;5060937;28;19962;-78
2022/11/23 06:37:22;;;;;;;;;;;11.30;74.70;;;;;;5057588;28;19948;-78
2022/11/23 06:39:51;;;;;;;;;;;11.30;74.70;;;;;;5074495;28;19927;-80
2022/11/23 06:42:16;;;;;;;;;;;11.30;74.70;;;;;;5092886;28;19916;-80
2022/11/23 06:44:42;;;;;;;;;;;11.30;74.70;;;;;;5068854;28;20376;-79
2022/11/23 06:47:08;;;;;;;;;;;11.30;74.70;;;;;;5056550;28;19963;-79
2022/11/23 06:49:33;;;;;;;;;;;11.30;74.70;;;;;;5060024;28;19916;-79
2022/11/23 06:52:17;;;;;;;;;;;11.30;74.70;;;;;;5063826;28;19916;-77
2022/11/23 06:54:43;;;;;;;;;;;11.30;74.70;;;;;;5056991;28;19919;-78
2022/11/23 06:57:08;;;;;;;;;;;11.30;74.80;;;;;;5055361;28;20299;-80
2022/11/23 06:59:34;;;;;;;;;;;11.30;74.80;;;;;;5078894;28;20283;-79
2022/11/23 07:02:02;;;;;;;;;;;11.30;74.70;;;;;;5061008;28;19941;-78
2022/11/23 07:04:32;;;;;;;;;;;11.30;74.70;;;;;;5048731;28;19923;-80
2022/11/23 07:06:58;;;;;;;;;;;11.30;74.70;;;;;;5068366;28;19932;-79
2022/11/23 07:09:37;;;;;;;;;;;11.30;74.70;;;;;;5067824;28;19916;-79
2022/11/23 07:12:25;;;;;;;;;;;11.30;74.80;;;;;;5058484;28;19939;-78
2022/11/23 07:14:51;;;;;;;;;;;11.30;74.70;;;;;;5062556;28;19963;-80
2022/11/23 07:17:17;;;;;;;;;;;11.30;74.70;;;;;;5076387;28;19988;-78
2022/11/23 07:19:42;;;;;;;;;;;11.30;74.70;;;;;;5077363;28;19923;-78
2022/11/23 07:22:09;;;;;;;;;;;11.30;74.70;;;;;;5078206;28;20355;-79
2022/11/23 07:24:34;;;;;;;;;;;11.30;74.70;;;;;;5062563;28;20215;-79
2022/11/23 07:27:00;;;;;;;;;;;11.30;74.70;;;;;;5057860;28;20367;-79
2022/11/23 07:29:26;;;;;;;;;;;11.30;74.80;;;;;;5079293;28;20384;-80
2022/11/23 07:31:51;;;;;;;;;;;11.30;74.70;;;;;;5076964;28;19916;-81
2022/11/23 07:34:21;;;;;;;;;;;11.30;74.80;;;;;;5062068;28;20574;-79
2022/11/23 07:36:47;;;;;;;;;;;11.30;74.70;;;;;;5066977;28;20012;-79
2022/11/23 07:39:13;;;;;;;;;;;11.30;75.40;;;;;;5075988;28;19916;-80
2022/11/23 07:41:38;;;;;;;;;;;11.30;74.70;;;;;;5059879;28;19920;-79
2022/11/23 07:44:07;;;;;;;;;;;11.30;74.90;;;;;;5060361;28;19999;-80
2022/11/23 07:46:33;;;;;;;;;;;11.30;74.70;;;;;;5070456;28;20019;-78
2022/11/23 07:49:01;;;;;;;;;;;11.30;74.70;;;;;;5060011;28;19924;-79
2022/11/23 07:51:27;;;;;;;;;;;11.30;74.80;;;;;;5059438;28;19917;-79
2022/11/23 07:53:52;;;;;;;;;;;11.30;74.80;;;;;;5069129;28;20382;-79
2022/11/23 07:56:18;;;;;;;;;;;11.30;74.70;;;;;;5077472;28;20002;-81
2022/11/23 07:58:44;;;;;;;;;;;11.30;74.70;;;;;;5085388;28;19963;-79
2022/11/23 08:01:13;;;;;;;;;;;11.30;74.80;;;;;;5092093;28;20318;-79
2022/11/23 08:03:38;;;;;;;;;;;11.30;74.70;;;;;;5078329;28;19982;-79
2022/11/23 08:06:08;;;;;;;;;;;11.30;74.70;;;;;;5046478;28;19916;-79
2022/11/23 08:08:34;;;;;;;;;;;11.30;74.80;;;;;;5078708;28;19917;-80
2022/11/23 08:10:59;;;;;;;;;;;11.30;74.80;;;;;;5057923;28;19938;-79
2022/11/23 08:13:25;;;;;;;;;;;11.30;74.70;;;;;;5066355;28;19916;-80
2022/11/23 08:15:51;;;;;;;;;;;11.30;74.70;;;;;;5082548;28;19920;-80
2022/11/23 08:18:16;;;;;;;;;;;11.30;74.70;;;;;;5056127;28;19959;-81
2022/11/23 08:20:42;;;;;;;;;;;11.30;74.70;;;;;;5059558;28;19912;-80
2022/11/23 08:23:07;;;;;;;;;;;11.30;74.70;;;;;;5053609;28;19927;-80
2022/11/23 08:25:33;;;;;;;;;;;11.30;74.70;;;;;;5078843;28;19949;-80
2022/11/23 08:28:00;;;;;;;;;;;11.30;74.70;;;;;;5051031;28;19928;-81
2022/11/23 08:30:26;;;;;;;;;;;11.30;74.70;;;;;;5082487;28;19916;-80
2022/11/23 08:32:52;;;;;;;;;;;11.30;74.80;;;;;;5068796;28;19917;-79
2022/11/23 08:35:18;;;;;;;;;;;11.30;74.70;;;;;;5061302;28;20010;-79
2022/11/23 08:37:43;;;;;;;;;;;11.30;74.70;;;;;;5063165;28;19916;-80
2022/11/23 08:40:09;;;;;;;;;;;11.30;74.80;;;;;;5062956;28;20337;-81
2022/11/23 08:42:35;;;;;;;;;;;11.30;74.80;;;;;;5077862;28;19984;-80
2022/11/23 08:45:02;;;;;;;;;;;11.30;74.70;;;;;;5072961;28;19924;-80
2022/11/23 08:47:28;;;;;;;;;;;11.30;74.80;;;;;;5079792;28;19928;-79
2022/11/23 08:49:53;;;;;;;;;;;11.30;74.70;;;;;;5064444;28;19920;-81
2022/11/23 08:52:19;;;;;;;;;;;11.30;74.80;;;;;;5077603;28;19999;-83
2022/11/23 08:54:45;;;;;;;;;;;11.30;74.70;;;;;;5057729;28;20002;-80
2022/11/23 08:57:10;;;;;;;;;;;11.30;74.70;;;;;;5059909;28;19924;-79
2022/11/23 08:59:36;;;;;;;;;;;11.30;74.80;;;;;;5068069;28;20402;-80
2022/11/23 09:02:02;;;;;;;;;;;11.30;74.70;;;;;;5051997;28;19946;-81
2022/11/23 09:04:29;;;;;;;;;;;11.30;74.70;;;;;;5059225;28;19926;-79
2022/11/23 09:06:55;;;;;;;;;;;11.30;74.70;;;;;;5057527;28;19924;-80
2022/11/23 09:09:21;;;;;;;;;;;11.40;74.80;;;;;;5077016;28;19961;-79
2022/11/23 09:11:47;;;;;;;;;;;11.40;74.80;;;;;;5095508;28;20272;-80
2022/11/23 09:14:13;;;;;;;;;;;11.40;74.70;;;;;;5075756;28;19917;-81
2022/11/23 09:16:38;;;;;;;;;;;11.40;74.70;;;;;;5061184;28;19927;-80
2022/11/23 09:19:06;;;;;;;;;;;11.40;74.70;;;;;;5093961;28;20441;-80
2022/11/23 09:21:34;;;;;;;;;;;11.40;74.70;;;;;;5065227;28;19934;-81
2022/11/23 09:24:00;;;;;;;;;;;11.40;74.70;;;;;;5078504;28;19916;-80
2022/11/23 09:26:26;;;;;;;;;;;11.40;74.70;;;;;;5073339;28;20770;-80
2022/11/23 09:28:51;;;;;;;;;;;11.50;74.70;;;;;;5075583;28;20632;-80
2022/11/23 09:31:17;;;;;;;;;;;11.50;74.70;;;;;;5050308;28;19963;-80
2022/11/23 09:33:43;;;;;;;;;;;11.50;74.70;;;;;;5059674;28;20387;-80
2022/11/23 09:36:09;;;;;;;;;;;11.50;74.70;;;;;;5058248;28;20011;-80
2022/11/23 09:38:34;;;;;;;;;;;11.50;74.70;;;;;;5072640;28;20026;-81
2022/11/23 09:41:19;;;;;;;;;;;11.50;74.70;;;;;;5075133;28;20400;-81
2022/11/23 09:43:44;;;;;;;;;;;11.60;74.70;;;;;;5077618;28;19914;-82
2022/11/23 09:46:29;;;;;;;;;;;11.50;74.60;;;;;;5065404;28;19920;-80
2022/11/23 09:49:03;;;;;;;;;;;11.60;74.70;;;;;;5075504;28;19912;-80
2022/11/23 09:51:29;;;;;;;;;;;11.60;74.70;;;;;;5069713;28;19920;-81
2022/11/23 09:53:58;;;;;;;;;;;11.60;74.70;;;;;;5052892;28;20276;-81
2022/11/23 09:56:27;;;;;;;;;;;11.60;74.70;;;;;;5060782;28;19956;-80
2022/11/23 09:58:54;;;;;;;;;;;11.60;74.70;;;;;;5057712;28;20030;-81
2022/11/23 10:01:20;;;;;;;;;;;11.60;74.70;;;;;;5058753;28;19912;-81
2022/11/23 10:03:46;;;;;;;;;;;11.60;74.70;;;;;;5065325;28;19916;-81
2022/11/23 10:06:18;;;;;;;;;;;11.60;74.70;;;;;;5077144;28;19912;-80
2022/11/23 10:09:02;;;;;;;;;;;11.60;74.70;;;;;;5056309;28;19916;-81
2022/11/23 10:11:40;;;;;;;;;;;11.60;74.70;;;;;;5077195;28;19916;-80
2022/11/23 10:14:15;;;;;;;;;;;11.70;74.80;;;;;;5077935;28;19920;-81
2022/11/23 10:17:00;;;;;;;;;;;11.60;74.70;;;;;;5066917;28;19973;-81
2022/11/23 10:19:37;;;;;;;;;;;11.60;74.80;;;;;;5063053;28;19912;-80
2022/11/23 10:22:08;;;;;;;;;;;11.70;74.80;;;;;;5092005;28;19912;-80
2022/11/23 10:24:38;;;;;;;;;;;11.70;74.90;;;;;;5075740;28;19919;-80
2022/11/23 10:27:09;;;;;;;;;;;11.70;74.80;;;;;;5075549;28;19962;-82
2022/11/23 10:29:36;;;;;;;;;;;11.70;74.80;;;;;;5057331;28;19916;-81
2022/11/23 10:32:05;;;;;;;;;;;11.70;74.80;;;;;;5063758;28;19919;-81
2022/11/23 10:34:31;;;;;;;;;;;11.70;74.80;;;;;;5098772;28;19912;-80
2022/11/23 10:36:57;;;;;;;;;;;11.70;74.90;;;;;;5076237;28;20375;-81
2022/11/23 10:39:23;;;;;;;;;;;11.70;74.80;;;;;;5059225;28;19916;-81
2022/11/23 10:42:00;;;;;;;;;;;11.70;74.80;;;;;;5076788;28;19916;-80
2022/11/23 10:44:35;;;;;;;;;;;11.70;74.90;;;;;;5081611;28;20002;-81
2022/11/23 10:47:01;;;;;;;;;;;11.70;74.80;;;;;;5096719;28;20057;-81
2022/11/23 10:49:28;;;;;;;;;;;11.80;74.90;;;;;;5082305;28;20393;-81
2022/11/23 10:52:07;;;;;;;;;;;11.70;74.80;;;;;;5076528;28;20039;-81
2022/11/23 10:54:47;;;;;;;;;;;11.70;74.80;;;;;;5078570;28;19912;-80
2022/11/23 10:57:32;;;;;;;;;;;11.70;74.90;;;;;;5085365;28;19912;-81
2022/11/23 11:00:11;;;;;;;;;;;11.80;75.00;;;;;;5077442;28;19924;-81
2022/11/23 11:02:47;;;;;;;;;;;11.80;75.00;;;;;;5081578;28;19919;-81
2022/11/23 11:05:22;;;;;;;;;;;11.70;74.90;;;;;;5068937;28;19912;-82
2022/11/23 11:07:48;;;;;;;;;;;11.80;74.90;;;;;;5073663;28;19966;-81
2022/11/23 11:10:32;;;;;;;;;;;11.80;74.90;;;;;;5048362;28;20369;-82
2022/11/23 11:12:58;;;;;;;;;;;11.80;74.90;;;;;;5098196;28;19958;-81
2022/11/23 11:15:23;;;;;;;;;;;11.80;74.90;;;;;;5074001;28;19954;-81
2022/11/23 11:17:56;;;;;;;;;;;11.80;74.90;;;;;;5048666;28;20007;-81
2022/11/23 11:20:22;;;;;;;;;;;11.80;74.90;;;;;;5074228;28;19931;-81
2022/11/23 11:22:48;;;;;;;;;;;11.80;74.90;;;;;;5075623;28;19912;-80
2022/11/23 11:25:35;;;;;;;;;;;11.80;74.90;;;;;;5064254;28;19916;-82
2022/11/23 11:28:02;;;;;;;;;;;11.80;74.90;;;;;;5086667;28;19920;-82
2022/11/23 11:30:33;;;;;;;;;;;11.80;74.90;;;;;;5065323;28;19920;-80
2022/11/23 11:33:20;;;;;;;;;;;11.80;74.90;;;;;;5076206;28;19919;-82
2022/11/23 11:35:48;;;;;;;;;;;11.80;74.90;;;;;;5058381;28;20404;-81
2022/11/23 11:38:17;;;;;;;;;;;11.80;74.90;;;;;;5057753;28;19912;-82
2022/11/23 11:40:43;;;;;;;;;;;11.80;74.90;;;;;;5079245;28;19912;-81
2022/11/23 11:43:17;;;;;;;;;;;11.80;74.90;;;;;;5091734;28;19916;-81
2022/11/23 11:45:43;;;;;;;;;;;11.80;74.90;;;;;;5080904;28;19919;-82
2022/11/23 11:48:12;;;;;;;;;;;11.90;75.60;;;;;;5065101;28;19929;-81
2022/11/23 11:50:43;;;;;;;;;;;11.80;74.90;;;;;;5077084;28;19919;-81
2022/11/23 11:53:15;;;;;;;;;;;11.80;74.90;;;;;;5078905;28;20009;-81
2022/11/23 11:55:50;;;;;;;;;;;11.90;75.00;;;;;;5076634;28;19999;-81
2022/11/23 11:58:17;;;;;;;;;;;11.80;74.90;;;;;;5078293;28;19912;-82
2022/11/23 12:00:44;;;;;;;;;;;11.90;74.90;;;;;;5067608;28;19920;-84
2022/11/23 12:03:13;;;;;;;;;;;11.90;75.00;;;;;;5090865;28;19916;-82
2022/11/23 12:05:41;;;;;;;;;;;11.90;75.00;;;;;;5086549;28;20702;-82
2022/11/23 12:08:11;;;;;;;;;;;11.90;74.90;;;;;;5065757;28;19916;-81
2022/11/23 12:10:40;;;;;;;;;;;11.90;75.00;;;;;;5076494;28;19912;-81
2022/11/23 12:13:20;;;;;;;;;;;11.90;74.90;;;;;;5079671;28;19912;-80
2022/11/23 12:15:48;;;;;;;;;;;11.90;74.90;;;;;;5082028;28;20280;-81
2022/11/23 12:18:14;;;;;;;;;;;12.00;75.00;;;;;;5068033;28;19912;-81
2022/11/23 12:20:53;;;;;;;;;;;11.90;74.90;;;;;;5066323;28;20334;-80
2022/11/23 12:23:38;;;;;;;;;;;12.00;75.00;;;;;;5063848;28;19916;-81
2022/11/23 12:26:03;;;;;;;;;;;12.00;74.90;;;;;;5061959;28;19912;-81
2022/11/23 12:28:57;;;;;;;;;;;12.00;75.00;;;;;;5070500;28;20275;-80
2022/11/23 12:31:42;;;;;;;;;;;12.00;75.00;;;;;;5064618;28;19973;-82
2022/11/23 12:34:16;;;;;;;;;;;12.00;75.00;;;;;;5062692;28;19920;-81
2022/11/23 12:37:01;;;;;;;;;;;12.00;75.00;;;;;;5079574;28;19912;-82
2022/11/23 12:39:53;;;;;;;;;;;12.00;75.00;;;;;;5061969;28;20317;-82
2022/11/23 12:42:22;;;;;;;;;;;12.00;75.00;;;;;;5079761;28;20002;-81
2022/11/23 12:45:07;;;;;;;;;;;12.10;75.00;;;;;;5057751;28;19920;-80
2022/11/23 12:47:49;;;;;;;;;;;12.10;75.00;;;;;;5001853;28;19921;-81
2022/11/23 12:50:17;;;;;;;;;;;12.10;75.00;;;;;;5064988;28;19940;-79
2022/11/23 12:53:02;;;;;;;;;;;12.10;75.00;;;;;;5091981;28;19985;-80
2022/11/23 12:55:28;;;;;;;;;;;12.10;75.00;;;;;;5068328;28;19999;-79
2022/11/23 12:58:12;;;;;;;;;;;12.20;75.00;;;;;;5060969;28;19943;-79
2022/11/23 13:00:44;;;;;;;;;;;12.20;75.00;;;;;;5075672;28;20007;-80
2022/11/23 13:03:29;;;;;;;;;;;12.20;75.00;;;;;;5073946;28;20020;-79
2022/11/23 13:06:13;;;;;;;;;;;12.20;75.00;;;;;;5073891;28;19967;-80
2022/11/23 13:09:05;;;;;;;;;;;12.20;75.00;;;;;;5092360;28;19924;-82
2022/11/23 13:11:49;;;;;;;;;;;12.20;75.00;;;;;;5050250;28;20348;-81
2022/11/23 13:14:15;;;;;;;;;;;12.30;75.00;;;;;;5074380;28;19974;-81
2022/11/23 13:16:40;;;;;;;;;;;12.30;75.00;;;;;;5074396;28;19912;-80
2022/11/23 13:19:22;;;;;;;;;;;12.30;75.00;;;;;;5075452;28;19916;-81
2022/11/23 13:21:47;;;;;;;;;;;12.30;75.10;;;;;;5071145;28;19913;-81
2022/11/23 13:24:30;;;;;;;;;;;12.30;75.00;;;;;;5065013;28;19981;-82
2022/11/23 13:27:14;;;;;;;;;;;12.30;75.00;;;;;;5087652;28;19919;-83
2022/11/23 13:29:49;;;;;;;;;;;12.30;75.00;;;;;;5075986;28;19927;-83
2022/11/23 13:32:33;;;;;;;;;;;12.40;75.10;;;;;;5095634;28;19956;-84
2022/11/23 13:34:59;;;;;;;;;;;12.40;75.10;;;;;;5093297;28;19916;-84
2022/11/23 13:37:25;;;;;;;;;;;12.40;75.00;;;;;;5079698;28;19912;-82
2022/11/23 13:39:54;;;;;;;;;;;12.40;75.00;;;;;;5061012;28;19924;-83
2022/11/23 13:42:19;;;;;;;;;;;12.40;75.00;;;;;;5090242;28;19912;-83
2022/11/23 13:44:45;;;;;;;;;;;12.40;75.00;;;;;;5074341;28;20377;-83
2022/11/23 13:47:17;;;;;;;;;;;12.40;75.00;;;;;;5077080;28;19973;-82
2022/11/23 13:49:51;;;;;;;;;;;12.40;75.00;;;;;;5069615;28;19924;-81
2022/11/23 13:52:20;;;;;;;;;;;12.40;75.00;;;;;;5086889;28;19938;-81
2022/11/23 13:54:57;;;;;;;;;;;12.40;75.00;;;;;;5074013;28;20396;-82
2022/11/23 13:57:23;;;;;;;;;;;12.40;75.00;;;;;;5073428;28;19913;-84
2022/11/23 13:59:49;;;;;;;;;;;12.40;74.90;;;;;;5066858;28;20011;-81
2022/11/23 14:02:15;;;;;;;;;;;12.50;75.00;;;;;;5069818;28;20407;-82
2022/11/23 14:04:41;;;;;;;;;;;12.40;74.90;;;;;;5074335;28;19939;-82
2022/11/23 14:07:07;;;;;;;;;;;12.50;75.00;;;;;;5073991;28;19966;-82
2022/11/23 14:09:51;;;;;;;;;;;12.50;74.90;;;;;;5074214;28;19947;-83
2022/11/23 14:12:22;;;;;;;;;;;12.50;74.90;;;;;;5069153;28;19912;-83
2022/11/23 14:14:50;;;;;;;;;;;12.50;74.90;;;;;;5060427;28;20285;-82
2022/11/23 14:17:25;;;;;;;;;;;12.50;74.90;;;;;;5094535;28;19916;-83
2022/11/23 14:20:09;;;;;;;;;;;12.50;74.90;;;;;;5094606;28;19919;-82
2022/11/23 14:22:35;;;;;;;;;;;12.50;74.90;;;;;;5076221;28;19919;-82
2022/11/23 14:25:03;;;;;;;;;;;12.50;74.90;;;;;;5066906;28;19912;-82
2022/11/23 14:27:49;;;;;;;;;;;12.50;74.90;;;;;;5074483;28;19931;-82